sensor_id;sensor_type;location;lat;lon;timestamp;P1;durP1;ratioP1;P2;durP2;ratioP2
38557;SDS011;24333;42.626;23.308;2022-08-05T00:02:04;8.32;;;3.78;;
38557;SDS011;24333;42.626;23.308;2022-08-05T00:04:30;6.57;;;3.42;;
38557;SDS011;24333;42.626;23.308;2022-08-05T00:06:56;4.65;;;3.38;;
38557;SDS011;24333;42.626;23.308;2022-08-05T00:09:21;4.40;;;3.70;;
38557;SDS011;24333;42.626;23.308;2022-08-05T00:11:48;5.97;;;3.70;;
38557;SDS011;24333;42.626;23.308;2022-08-05T00:29:54;4.38;;;3.70;;
38557;SDS011;24333;42.626;23.308;2022-08-05T00:32:20;5.60;;;3.50;;
38557;SDS011;24333;42.626;23.308;2022-08-05T00:34:46;4.15;;;3.33;;
38557;SDS011;24333;42.626;23.308;2022-08-05T00:37:11;8.35;;;4.03;;
38557;SDS011;24333;42.626;23.308;2022-08-05T00:39:37;7.07;;;3.70;;
38557;SDS011;24333;42.626;23.308;2022-08-05T00:42:04;4.55;;;3.28;;
38557;SDS011;24333;42.626;23.308;2022-08-05T01:07:46;4.63;;;3.50;;
38557;SDS011;24333;42.626;23.308;2022-08-05T01:10:15;7.22;;;3.83;;
38557;SDS011;24333;42.626;23.308;2022-08-05T01:30:53;10.75;;;3.70;;
38557;SDS011;24333;42.626;23.308;2022-08-05T01:33:27;5.40;;;3.70;;
38557;SDS011;24333;42.626;23.308;2022-08-05T01:35:57;5.32;;;3.65;;
38557;SDS011;24333;42.626;23.308;2022-08-05T01:38:25;5.00;;;3.45;;
38557;SDS011;24333;42.626;23.308;2022-08-05T01:40:52;5.45;;;3.50;;
38557;SDS011;24333;42.626;23.308;2022-08-05T02:34:16;7.97;;;3.83;;
38557;SDS011;24333;42.626;23.308;2022-08-05T02:36:44;5.13;;;4.00;;
38557;SDS011;24333;42.626;23.308;2022-08-05T02:39:15;5.22;;;3.58;;
38557;SDS011;24333;42.626;23.308;2022-08-05T02:41:44;6.00;;;3.83;;
38557;SDS011;24333;42.626;23.308;2022-08-05T02:44:11;5.88;;;4.40;;
38557;SDS011;24333;42.626;23.308;2022-08-05T03:05:27;5.93;;;3.30;;
38557;SDS011;24333;42.626;23.308;2022-08-05T03:07:54;6.38;;;3.45;;
38557;SDS011;24333;42.626;23.308;2022-08-05T03:10:21;5.43;;;3.80;;
38557;SDS011;24333;42.626;23.308;2022-08-05T03:12:49;6.38;;;3.75;;
38557;SDS011;24333;42.626;23.308;2022-08-05T03:18:27;7.30;;;3.65;;
38557;SDS011;24333;42.626;23.308;2022-08-05T03:21:04;5.47;;;3.45;;
38557;SDS011;24333;42.626;23.308;2022-08-05T03:23:32;4.05;;;3.53;;
38557;SDS011;24333;42.626;23.308;2022-08-05T06:41:17;10.48;;;7.28;;
38557;SDS011;24333;42.626;23.308;2022-08-05T06:43:44;17.35;;;8.43;;
38557;SDS011;24333;42.626;23.308;2022-08-05T06:46:09;20.00;;;8.02;;
38557;SDS011;24333;42.626;23.308;2022-08-05T06:48:57;16.13;;;7.55;;
38557;SDS011;24333;42.626;23.308;2022-08-05T06:56:33;13.00;;;8.98;;
38557;SDS011;24333;42.626;23.308;2022-08-05T06:58:59;18.08;;;7.85;;
38557;SDS011;24333;42.626;23.308;2022-08-05T07:07:38;17.65;;;9.18;;
38557;SDS011;24333;42.626;23.308;2022-08-05T07:10:06;16.20;;;8.73;;
38557;SDS011;24333;42.626;23.308;2022-08-05T07:12:32;23.67;;;9.63;;
38557;SDS011;24333;42.626;23.308;2022-08-05T07:15:17;17.88;;;8.50;;
38557;SDS011;24333;42.626;23.308;2022-08-05T07:18:01;16.60;;;7.80;;
38557;SDS011;24333;42.626;23.308;2022-08-05T07:23:49;21.40;;;9.80;;
38557;SDS011;24333;42.626;23.308;2022-08-05T07:26:15;19.35;;;9.27;;
38557;SDS011;24333;42.626;23.308;2022-08-05T07:28:40;14.48;;;8.10;;
38557;SDS011;24333;42.626;23.308;2022-08-05T07:37:45;15.35;;;7.53;;
38557;SDS011;24333;42.626;23.308;2022-08-05T07:40:10;23.23;;;8.25;;
38557;SDS011;24333;42.626;23.308;2022-08-05T07:42:36;15.60;;;8.63;;
38557;SDS011;24333;42.626;23.308;2022-08-05T07:45:02;17.38;;;8.57;;
38557;SDS011;24333;42.626;23.308;2022-08-05T07:47:27;14.18;;;7.90;;
38557;SDS011;24333;42.626;23.308;2022-08-05T07:49:53;17.33;;;7.90;;
38557;SDS011;24333;42.626;23.308;2022-08-05T07:52:18;17.38;;;7.88;;
38557;SDS011;24333;42.626;23.308;2022-08-05T07:54:44;13.55;;;7.40;;
38557;SDS011;24333;42.626;23.308;2022-08-05T07:57:10;19.00;;;7.63;;
38557;SDS011;24333;42.626;23.308;2022-08-05T07:59:35;14.30;;;8.45;;
38557;SDS011;24333;42.626;23.308;2022-08-05T08:02:01;13.63;;;7.53;;
38557;SDS011;24333;42.626;23.308;2022-08-05T08:07:12;15.10;;;7.18;;
38557;SDS011;24333;42.626;23.308;2022-08-05T08:09:38;9.57;;;6.03;;
38557;SDS011;24333;42.626;23.308;2022-08-05T08:12:03;13.15;;;6.50;;
38557;SDS011;24333;42.626;23.308;2022-08-05T08:20:27;14.13;;;6.38;;
38557;SDS011;24333;42.626;23.308;2022-08-05T08:22:53;17.63;;;6.30;;
38557;SDS011;24333;42.626;23.308;2022-08-05T08:25:21;20.05;;;6.50;;
38557;SDS011;24333;42.626;23.308;2022-08-05T08:27:47;11.20;;;5.10;;
38557;SDS011;24333;42.626;23.308;2022-08-05T08:30:12;8.95;;;5.05;;
38557;SDS011;24333;42.626;23.308;2022-08-05T08:32:39;9.45;;;5.18;;
38557;SDS011;24333;42.626;23.308;2022-08-05T08:35:05;8.98;;;5.50;;
38557;SDS011;24333;42.626;23.308;2022-08-05T08:37:31;7.68;;;4.57;;
38557;SDS011;24333;42.626;23.308;2022-08-05T08:39:57;11.48;;;5.18;;
38557;SDS011;24333;42.626;23.308;2022-08-05T08:42:23;8.90;;;4.57;;
38557;SDS011;24333;42.626;23.308;2022-08-05T08:44:49;5.38;;;3.38;;
38557;SDS011;24333;42.626;23.308;2022-08-05T08:47:22;5.60;;;3.60;;
38557;SDS011;24333;42.626;23.308;2022-08-05T08:49:49;6.20;;;3.55;;
38557;SDS011;24333;42.626;23.308;2022-08-05T08:52:18;6.45;;;3.22;;
38557;SDS011;24333;42.626;23.308;2022-08-05T08:54:48;10.82;;;3.90;;
38557;SDS011;24333;42.626;23.308;2022-08-05T08:57:18;9.02;;;3.78;;
38557;SDS011;24333;42.626;23.308;2022-08-05T08:59:45;4.72;;;3.58;;
38557;SDS011;24333;42.626;23.308;2022-08-05T09:02:11;7.97;;;3.83;;
38557;SDS011;24333;42.626;23.308;2022-08-05T09:07:35;6.50;;;3.15;;
38557;SDS011;24333;42.626;23.308;2022-08-05T09:10:01;5.57;;;3.33;;
38557;SDS011;24333;42.626;23.308;2022-08-05T09:12:27;8.65;;;2.70;;
38557;SDS011;24333;42.626;23.308;2022-08-05T09:14:53;6.10;;;3.10;;
38557;SDS011;24333;42.626;23.308;2022-08-05T09:17:19;9.80;;;3.50;;
38557;SDS011;24333;42.626;23.308;2022-08-05T09:19:44;6.10;;;3.20;;
38557;SDS011;24333;42.626;23.308;2022-08-05T09:22:09;6.28;;;3.88;;
38557;SDS011;24333;42.626;23.308;2022-08-05T09:24:35;6.18;;;3.65;;
38557;SDS011;24333;42.626;23.308;2022-08-05T09:27:03;3.83;;;3.30;;
38557;SDS011;24333;42.626;23.308;2022-08-05T09:29:39;14.05;;;3.72;;
38557;SDS011;24333;42.626;23.308;2022-08-05T09:32:09;5.18;;;3.75;;
38557;SDS011;24333;42.626;23.308;2022-08-05T09:37:21;7.65;;;3.38;;
38557;SDS011;24333;42.626;23.308;2022-08-05T09:39:47;8.10;;;3.85;;
38557;SDS011;24333;42.626;23.308;2022-08-05T09:42:19;4.50;;;3.53;;
38557;SDS011;24333;42.626;23.308;2022-08-05T09:44:54;5.90;;;3.70;;
38557;SDS011;24333;42.626;23.308;2022-08-05T10:19:30;4.78;;;3.22;;
38557;SDS011;24333;42.626;23.308;2022-08-05T10:21:56;4.20;;;3.45;;
38557;SDS011;24333;42.626;23.308;2022-08-05T10:24:21;7.13;;;3.35;;
38557;SDS011;24333;42.626;23.308;2022-08-05T10:26:48;6.85;;;3.15;;
38557;SDS011;24333;42.626;23.308;2022-08-05T10:29:14;8.75;;;3.88;;
38557;SDS011;24333;42.626;23.308;2022-08-05T10:31:40;6.88;;;3.40;;
38557;SDS011;24333;42.626;23.308;2022-08-05T10:34:06;6.97;;;3.35;;
38557;SDS011;24333;42.626;23.308;2022-08-05T10:36:40;4.40;;;3.55;;
38557;SDS011;24333;42.626;23.308;2022-08-05T10:39:09;6.20;;;3.10;;
38557;SDS011;24333;42.626;23.308;2022-08-05T10:44:45;8.50;;;3.30;;
38557;SDS011;24333;42.626;23.308;2022-08-05T10:47:11;4.95;;;3.38;;
38557;SDS011;24333;42.626;23.308;2022-08-05T10:52:43;7.05;;;3.92;;
38557;SDS011;24333;42.626;23.308;2022-08-05T10:55:16;8.75;;;3.40;;
38557;SDS011;24333;42.626;23.308;2022-08-05T10:57:42;6.28;;;3.20;;
38557;SDS011;24333;42.626;23.308;2022-08-05T11:00:11;4.28;;;3.20;;
38557;SDS011;24333;42.626;23.308;2022-08-05T11:05:18;4.75;;;3.28;;
38557;SDS011;24333;42.626;23.308;2022-08-05T11:07:57;7.57;;;3.83;;
38557;SDS011;24333;42.626;23.308;2022-08-05T11:10:24;11.25;;;3.40;;
38557;SDS011;24333;42.626;23.308;2022-08-05T11:12:51;4.97;;;3.20;;
38557;SDS011;24333;42.626;23.308;2022-08-05T11:18:06;5.07;;;3.22;;
38557;SDS011;24333;42.626;23.308;2022-08-05T11:20:46;6.22;;;3.72;;
38557;SDS011;24333;42.626;23.308;2022-08-05T11:26:20;10.50;;;3.80;;
38557;SDS011;24333;42.626;23.308;2022-08-05T11:28:47;7.82;;;3.65;;
38557;SDS011;24333;42.626;23.308;2022-08-05T11:36:19;4.95;;;3.60;;
38557;SDS011;24333;42.626;23.308;2022-08-05T11:39:06;6.28;;;3.63;;
38557;SDS011;24333;42.626;23.308;2022-08-05T11:41:32;4.13;;;3.40;;
38557;SDS011;24333;42.626;23.308;2022-08-05T11:44:03;10.68;;;3.20;;
38557;SDS011;24333;42.626;23.308;2022-08-05T11:49:00;4.90;;;4.00;;
38557;SDS011;24333;42.626;23.308;2022-08-05T11:51:28;6.88;;;3.90;;
38557;SDS011;24333;42.626;23.308;2022-08-05T11:53:54;5.43;;;3.53;;
38557;SDS011;24333;42.626;23.308;2022-08-05T11:56:20;5.88;;;3.97;;
38557;SDS011;24333;42.626;23.308;2022-08-05T11:58:47;4.50;;;3.40;;
38557;SDS011;24333;42.626;23.308;2022-08-05T12:01:15;5.55;;;3.70;;
38557;SDS011;24333;42.626;23.308;2022-08-05T12:03:46;7.80;;;3.75;;
38557;SDS011;24333;42.626;23.308;2022-08-05T12:06:15;10.70;;;3.95;;
38557;SDS011;24333;42.626;23.308;2022-08-05T12:14:34;6.53;;;3.78;;
38557;SDS011;24333;42.626;23.308;2022-08-05T12:17:10;4.47;;;3.90;;
38557;SDS011;24333;42.626;23.308;2022-08-05T12:19:44;5.78;;;3.60;;
38557;SDS011;24333;42.626;23.308;2022-08-05T12:22:14;7.63;;;4.10;;
38557;SDS011;24333;42.626;23.308;2022-08-05T12:24:42;6.32;;;3.83;;
38557;SDS011;24333;42.626;23.308;2022-08-05T12:27:23;4.95;;;3.90;;
38557;SDS011;24333;42.626;23.308;2022-08-05T12:30:00;7.72;;;3.75;;
38557;SDS011;24333;42.626;23.308;2022-08-05T12:32:32;6.68;;;3.65;;
38557;SDS011;24333;42.626;23.308;2022-08-05T12:34:59;3.97;;;3.33;;
38557;SDS011;24333;42.626;23.308;2022-08-05T12:37:39;9.65;;;4.00;;
38557;SDS011;24333;42.626;23.308;2022-08-05T12:40:09;8.57;;;3.70;;
38557;SDS011;24333;42.626;23.308;2022-08-05T12:42:37;6.43;;;3.67;;
38557;SDS011;24333;42.626;23.308;2022-08-05T12:45:07;4.82;;;4.00;;
38557;SDS011;24333;42.626;23.308;2022-08-05T12:47:34;6.78;;;3.80;;
38557;SDS011;24333;42.626;23.308;2022-08-05T12:50:00;6.28;;;3.92;;
38557;SDS011;24333;42.626;23.308;2022-08-05T12:52:37;5.80;;;3.58;;
38557;SDS011;24333;42.626;23.308;2022-08-05T12:55:14;7.97;;;3.95;;
38557;SDS011;24333;42.626;23.308;2022-08-05T12:57:42;8.07;;;4.10;;
38557;SDS011;24333;42.626;23.308;2022-08-05T13:00:18;6.80;;;3.88;;
38557;SDS011;24333;42.626;23.308;2022-08-05T13:02:47;6.18;;;4.22;;
38557;SDS011;24333;42.626;23.308;2022-08-05T13:05:13;8.25;;;4.00;;
38557;SDS011;24333;42.626;23.308;2022-08-05T13:07:39;5.60;;;3.78;;
38557;SDS011;24333;42.626;23.308;2022-08-05T13:10:12;4.85;;;3.80;;
38557;SDS011;24333;42.626;23.308;2022-08-05T13:12:39;6.97;;;4.13;;
38557;SDS011;24333;42.626;23.308;2022-08-05T13:15:08;9.63;;;4.10;;
38557;SDS011;24333;42.626;23.308;2022-08-05T13:17:35;5.93;;;3.58;;
38557;SDS011;24333;42.626;23.308;2022-08-05T13:22:31;4.43;;;3.72;;
38557;SDS011;24333;42.626;23.308;2022-08-05T13:24:59;4.72;;;3.50;;
38557;SDS011;24333;42.626;23.308;2022-08-05T13:27:38;6.68;;;3.58;;
38557;SDS011;24333;42.626;23.308;2022-08-05T13:30:07;9.00;;;4.47;;
38557;SDS011;24333;42.626;23.308;2022-08-05T13:32:34;7.13;;;4.07;;
38557;SDS011;24333;42.626;23.308;2022-08-05T13:35:00;6.03;;;3.65;;
38557;SDS011;24333;42.626;23.308;2022-08-05T13:37:25;7.25;;;4.07;;
38557;SDS011;24333;42.626;23.308;2022-08-05T13:39:51;7.40;;;4.15;;
38557;SDS011;24333;42.626;23.308;2022-08-05T13:42:20;9.10;;;4.20;;
38557;SDS011;24333;42.626;23.308;2022-08-05T13:44:49;7.45;;;4.10;;
38557;SDS011;24333;42.626;23.308;2022-08-05T13:47:18;8.23;;;4.00;;
38557;SDS011;24333;42.626;23.308;2022-08-05T13:49:44;9.13;;;4.05;;
38557;SDS011;24333;42.626;23.308;2022-08-05T13:55:09;7.93;;;4.30;;
38557;SDS011;24333;42.626;23.308;2022-08-05T13:57:35;12.02;;;4.30;;
38557;SDS011;24333;42.626;23.308;2022-08-05T14:00:02;4.40;;;3.72;;
38557;SDS011;24333;42.626;23.308;2022-08-05T14:02:28;4.93;;;3.70;;
38557;SDS011;24333;42.626;23.308;2022-08-05T14:04:53;8.75;;;4.60;;
38557;SDS011;24333;42.626;23.308;2022-08-05T14:07:41;7.53;;;4.50;;
38557;SDS011;24333;42.626;23.308;2022-08-05T14:10:15;6.80;;;3.97;;
38557;SDS011;24333;42.626;23.308;2022-08-05T14:12:43;7.18;;;4.28;;
38557;SDS011;24333;42.626;23.308;2022-08-05T14:15:09;11.38;;;4.00;;
38557;SDS011;24333;42.626;23.308;2022-08-05T14:17:35;5.72;;;4.00;;
38557;SDS011;24333;42.626;23.308;2022-08-05T14:20:00;9.95;;;4.18;;
38557;SDS011;24333;42.626;23.308;2022-08-05T14:22:26;7.28;;;4.10;;
38557;SDS011;24333;42.626;23.308;2022-08-05T14:24:51;4.68;;;4.15;;
38557;SDS011;24333;42.626;23.308;2022-08-05T14:27:17;6.97;;;4.10;;
38557;SDS011;24333;42.626;23.308;2022-08-05T14:29:42;5.97;;;3.90;;
38557;SDS011;24333;42.626;23.308;2022-08-05T14:32:08;6.90;;;3.90;;
38557;SDS011;24333;42.626;23.308;2022-08-05T14:34:33;5.47;;;4.10;;
38557;SDS011;24333;42.626;23.308;2022-08-05T14:36:59;6.60;;;3.70;;
38557;SDS011;24333;42.626;23.308;2022-08-05T14:39:24;4.65;;;3.88;;
38557;SDS011;24333;42.626;23.308;2022-08-05T14:41:50;7.15;;;4.00;;
38557;SDS011;24333;42.626;23.308;2022-08-05T14:44:16;5.80;;;3.42;;
38557;SDS011;24333;42.626;23.308;2022-08-05T14:46:41;6.35;;;3.55;;
38557;SDS011;24333;42.626;23.308;2022-08-05T14:49:07;5.72;;;4.00;;
38557;SDS011;24333;42.626;23.308;2022-08-05T14:51:32;4.95;;;3.22;;
38557;SDS011;24333;42.626;23.308;2022-08-05T14:53:59;7.70;;;3.50;;
38557;SDS011;24333;42.626;23.308;2022-08-05T14:56:24;5.63;;;3.60;;
38557;SDS011;24333;42.626;23.308;2022-08-05T14:58:50;9.68;;;3.92;;
38557;SDS011;24333;42.626;23.308;2022-08-05T15:01:16;10.80;;;3.30;;
38557;SDS011;24333;42.626;23.308;2022-08-05T15:03:42;10.35;;;3.53;;
38557;SDS011;24333;42.626;23.308;2022-08-05T15:06:17;5.68;;;3.42;;
38557;SDS011;24333;42.626;23.308;2022-08-05T15:08:45;5.60;;;3.60;;
38557;SDS011;24333;42.626;23.308;2022-08-05T15:11:11;5.97;;;3.33;;
38557;SDS011;24333;42.626;23.308;2022-08-05T15:13:36;4.60;;;3.40;;
38557;SDS011;24333;42.626;23.308;2022-08-05T15:16:02;16.00;;;3.45;;
38557;SDS011;24333;42.626;23.308;2022-08-05T15:18:28;6.25;;;3.78;;
38557;SDS011;24333;42.626;23.308;2022-08-05T15:20:53;6.18;;;3.40;;
38557;SDS011;24333;42.626;23.308;2022-08-05T15:23:18;10.70;;;4.20;;
38557;SDS011;24333;42.626;23.308;2022-08-05T15:28:19;3.90;;;3.50;;
38557;SDS011;24333;42.626;23.308;2022-08-05T15:30:45;7.45;;;3.45;;
38557;SDS011;24333;42.626;23.308;2022-08-05T15:33:10;11.80;;;3.63;;
38557;SDS011;24333;42.626;23.308;2022-08-05T15:35:36;4.60;;;3.22;;
38557;SDS011;24333;42.626;23.308;2022-08-05T15:38:17;12.15;;;3.63;;
38557;SDS011;24333;42.626;23.308;2022-08-05T15:40:46;6.55;;;3.13;;
38557;SDS011;24333;42.626;23.308;2022-08-05T15:43:11;3.80;;;2.67;;
38557;SDS011;24333;42.626;23.308;2022-08-05T15:45:37;6.13;;;3.20;;
38557;SDS011;24333;42.626;23.308;2022-08-05T15:48:08;6.38;;;2.90;;
38557;SDS011;24333;42.626;23.308;2022-08-05T15:50:34;8.45;;;3.72;;
38557;SDS011;24333;42.626;23.308;2022-08-05T15:53:01;4.80;;;3.40;;
38557;SDS011;24333;42.626;23.308;2022-08-05T15:55:26;5.05;;;3.25;;
38557;SDS011;24333;42.626;23.308;2022-08-05T15:57:52;4.28;;;2.85;;
38557;SDS011;24333;42.626;23.308;2022-08-05T16:00:17;4.25;;;3.15;;
38557;SDS011;24333;42.626;23.308;2022-08-05T16:02:43;10.23;;;4.00;;
38557;SDS011;24333;42.626;23.308;2022-08-05T16:05:09;27.70;;;8.18;;
38557;SDS011;24333;42.626;23.308;2022-08-05T16:07:34;19.73;;;12.65;;
38557;SDS011;24333;42.626;23.308;2022-08-05T16:41:13;9.02;;;4.80;;
38557;SDS011;24333;42.626;23.308;2022-08-05T16:43:38;9.68;;;5.68;;
38557;SDS011;24333;42.626;23.308;2022-08-05T16:46:04;6.75;;;4.90;;
38557;SDS011;24333;42.626;23.308;2022-08-05T16:48:29;9.93;;;5.72;;
38557;SDS011;24333;42.626;23.308;2022-08-05T16:50:55;6.25;;;5.03;;
38557;SDS011;24333;42.626;23.308;2022-08-05T16:53:20;7.70;;;5.15;;
38557;SDS011;24333;42.626;23.308;2022-08-05T16:58:55;8.48;;;5.22;;
38557;SDS011;24333;42.626;23.308;2022-08-05T17:01:21;6.80;;;4.78;;
38557;SDS011;24333;42.626;23.308;2022-08-05T17:03:47;6.43;;;4.47;;
38557;SDS011;24333;42.626;23.308;2022-08-05T20:27:14;5.03;;;4.15;;
38557;SDS011;24333;42.626;23.308;2022-08-05T20:29:39;4.40;;;3.38;;
38557;SDS011;24333;42.626;23.308;2022-08-05T20:32:05;5.63;;;3.50;;
38557;SDS011;24333;42.626;23.308;2022-08-05T20:34:30;6.45;;;3.75;;
38557;SDS011;24333;42.626;23.308;2022-08-05T21:13:53;7.25;;;3.67;;
38557;SDS011;24333;42.626;23.308;2022-08-05T21:16:19;9.38;;;3.35;;
38557;SDS011;24333;42.626;23.308;2022-08-05T21:18:45;7.28;;;3.63;;
38557;SDS011;24333;42.626;23.308;2022-08-05T21:21:11;8.40;;;3.85;;
38557;SDS011;24333;42.626;23.308;2022-08-05T21:23:36;15.50;;;3.90;;
38557;SDS011;24333;42.626;23.308;2022-08-05T21:26:02;8.27;;;3.90;;
38557;SDS011;24333;42.626;23.308;2022-08-05T21:28:28;9.38;;;3.88;;
38557;SDS011;24333;42.626;23.308;2022-08-05T21:30:54;5.28;;;3.45;;
38557;SDS011;24333;42.626;23.308;2022-08-05T21:33:19;9.43;;;3.80;;
38557;SDS011;24333;42.626;23.308;2022-08-05T21:35:45;6.32;;;3.50;;
38557;SDS011;24333;42.626;23.308;2022-08-05T21:56:49;5.45;;;3.60;;
38557;SDS011;24333;42.626;23.308;2022-08-05T21:59:15;5.03;;;3.40;;
38557;SDS011;24333;42.626;23.308;2022-08-05T22:01:41;4.75;;;3.53;;
38557;SDS011;24333;42.626;23.308;2022-08-05T22:04:07;3.47;;;3.15;;
38557;SDS011;24333;42.626;23.308;2022-08-05T22:06:32;6.03;;;3.40;;
38557;SDS011;24333;42.626;23.308;2022-08-05T22:08:58;9.35;;;3.08;;
38557;SDS011;24333;42.626;23.308;2022-08-05T22:42:26;6.32;;;3.33;;
38557;SDS011;24333;42.626;23.308;2022-08-05T22:44:51;5.10;;;3.13;;
38557;SDS011;24333;42.626;23.308;2022-08-05T22:47:16;3.90;;;3.13;;
38557;SDS011;24333;42.626;23.308;2022-08-05T23:24:46;9.93;;;3.92;;
38557;SDS011;24333;42.626;23.308;2022-08-05T23:27:12;5.95;;;4.15;;
38557;SDS011;24333;42.626;23.308;2022-08-05T23:29:38;8.77;;;4.53;;
38557;SDS011;24333;42.626;23.308;2022-08-05T23:32:04;5.95;;;4.00;;
38557;SDS011;24333;42.626;23.308;2022-08-05T23:34:29;8.30;;;4.50;;
38557;SDS011;24333;42.626;23.308;2022-08-05T23:36:55;6.53;;;3.75;;
